sensor_id;sensor_type;location;lat;lon;timestamp;P1;durP1;ratioP1;P2;durP2;ratioP2
81154;SDS011;70631;50.436;7.826;2023-09-12T00:01:56;11.93;;;6.20;;
81154;SDS011;70631;50.436;7.826;2023-09-12T00:04:21;10.40;;;6.67;;
81154;SDS011;70631;50.436;7.826;2023-09-12T00:06:46;17.30;;;7.57;;
81154;SDS011;70631;50.436;7.826;2023-09-12T00:09:12;14.67;;;7.23;;
81154;SDS011;70631;50.436;7.826;2023-09-12T00:11:37;10.93;;;7.03;;
81154;SDS011;70631;50.436;7.826;2023-09-12T00:14:02;12.23;;;6.80;;
81154;SDS011;70631;50.436;7.826;2023-09-12T00:16:28;10.85;;;6.60;;
81154;SDS011;70631;50.436;7.826;2023-09-12T00:18:53;13.60;;;7.17;;
81154;SDS011;70631;50.436;7.826;2023-09-12T00:21:18;8.63;;;6.57;;
81154;SDS011;70631;50.436;7.826;2023-09-12T00:23:43;12.57;;;6.47;;
81154;SDS011;70631;50.436;7.826;2023-09-12T00:26:09;12.53;;;6.60;;
81154;SDS011;70631;50.436;7.826;2023-09-12T00:28:34;8.25;;;6.10;;
81154;SDS011;70631;50.436;7.826;2023-09-12T00:30:59;11.77;;;6.45;;
81154;SDS011;70631;50.436;7.826;2023-09-12T00:33:25;13.13;;;6.67;;
81154;SDS011;70631;50.436;7.826;2023-09-12T00:35:50;11.33;;;6.83;;
81154;SDS011;70631;50.436;7.826;2023-09-12T00:38:15;16.13;;;6.70;;
81154;SDS011;70631;50.436;7.826;2023-09-12T00:40:40;9.60;;;6.53;;
81154;SDS011;70631;50.436;7.826;2023-09-12T00:43:06;14.65;;;6.78;;
81154;SDS011;70631;50.436;7.826;2023-09-12T00:45:31;9.57;;;7.10;;
81154;SDS011;70631;50.436;7.826;2023-09-12T00:47:59;10.47;;;6.97;;
81154;SDS011;70631;50.436;7.826;2023-09-12T00:50:28;8.63;;;6.45;;
81154;SDS011;70631;50.436;7.826;2023-09-12T00:52:55;14.15;;;7.80;;
81154;SDS011;70631;50.436;7.826;2023-09-12T00:55:21;11.45;;;6.78;;
81154;SDS011;70631;50.436;7.826;2023-09-12T00:57:46;13.85;;;7.35;;
81154;SDS011;70631;50.436;7.826;2023-09-12T01:00:13;11.25;;;6.30;;
81154;SDS011;70631;50.436;7.826;2023-09-12T01:02:42;9.48;;;6.80;;
81154;SDS011;70631;50.436;7.826;2023-09-12T01:05:09;13.02;;;6.95;;
81154;SDS011;70631;50.436;7.826;2023-09-12T01:07:35;14.07;;;8.02;;
81154;SDS011;70631;50.436;7.826;2023-09-12T01:10:01;9.65;;;6.72;;
81154;SDS011;70631;50.436;7.826;2023-09-12T01:12:27;11.85;;;6.85;;
81154;SDS011;70631;50.436;7.826;2023-09-12T01:14:54;14.63;;;7.18;;
81154;SDS011;70631;50.436;7.826;2023-09-12T01:17:19;13.13;;;7.25;;
81154;SDS011;70631;50.436;7.826;2023-09-12T01:19:44;11.87;;;7.20;;
81154;SDS011;70631;50.436;7.826;2023-09-12T01:27:46;10.35;;;6.70;;
81154;SDS011;70631;50.436;7.826;2023-09-12T01:30:14;7.95;;;6.38;;
81154;SDS011;70631;50.436;7.826;2023-09-12T01:32:42;11.05;;;6.65;;
81154;SDS011;70631;50.436;7.826;2023-09-12T01:35:08;9.23;;;6.22;;
81154;SDS011;70631;50.436;7.826;2023-09-12T01:37:33;9.95;;;5.85;;
81154;SDS011;70631;50.436;7.826;2023-09-12T01:39:59;9.60;;;6.30;;
81154;SDS011;70631;50.436;7.826;2023-09-12T01:42:27;11.40;;;6.53;;
81154;SDS011;70631;50.436;7.826;2023-09-12T01:44:56;12.13;;;6.70;;
81154;SDS011;70631;50.436;7.826;2023-09-12T01:47:22;12.35;;;6.57;;
81154;SDS011;70631;50.436;7.826;2023-09-12T01:49:51;13.88;;;6.68;;
81154;SDS011;70631;50.436;7.826;2023-09-12T01:52:19;10.98;;;5.88;;
81154;SDS011;70631;50.436;7.826;2023-09-12T01:54:45;9.70;;;5.93;;
81154;SDS011;70631;50.436;7.826;2023-09-12T01:57:12;15.48;;;6.78;;
81154;SDS011;70631;50.436;7.826;2023-09-12T01:59:38;10.23;;;6.82;;
81154;SDS011;70631;50.436;7.826;2023-09-12T02:02:04;12.32;;;6.95;;
81154;SDS011;70631;50.436;7.826;2023-09-12T02:04:29;9.83;;;7.03;;
81154;SDS011;70631;50.436;7.826;2023-09-12T02:06:54;11.40;;;7.47;;
81154;SDS011;70631;50.436;7.826;2023-09-12T02:09:20;11.57;;;7.00;;
81154;SDS011;70631;50.436;7.826;2023-09-12T02:11:45;10.43;;;7.00;;
81154;SDS011;70631;50.436;7.826;2023-09-12T02:14:11;13.02;;;7.55;;
81154;SDS011;70631;50.436;7.826;2023-09-12T02:16:36;8.97;;;6.40;;
81154;SDS011;70631;50.436;7.826;2023-09-12T02:19:05;12.00;;;7.75;;
81154;SDS011;70631;50.436;7.826;2023-09-12T02:21:31;12.48;;;7.07;;
81154;SDS011;70631;50.436;7.826;2023-09-12T02:23:57;12.05;;;7.20;;
81154;SDS011;70631;50.436;7.826;2023-09-12T02:26:22;9.23;;;6.30;;
81154;SDS011;70631;50.436;7.826;2023-09-12T02:28:47;12.60;;;6.90;;
81154;SDS011;70631;50.436;7.826;2023-09-12T02:31:12;13.70;;;7.10;;
81154;SDS011;70631;50.436;7.826;2023-09-12T02:33:38;9.37;;;7.27;;
81154;SDS011;70631;50.436;7.826;2023-09-12T02:36:04;7.35;;;5.97;;
81154;SDS011;70631;50.436;7.826;2023-09-12T02:38:30;13.50;;;7.38;;
81154;SDS011;70631;50.436;7.826;2023-09-12T02:40:55;8.80;;;6.18;;
81154;SDS011;70631;50.436;7.826;2023-09-12T02:43:21;11.87;;;7.53;;
81154;SDS011;70631;50.436;7.826;2023-09-12T02:45:46;13.38;;;7.38;;
81154;SDS011;70631;50.436;7.826;2023-09-12T02:48:11;9.27;;;7.10;;
81154;SDS011;70631;50.436;7.826;2023-09-12T02:50:37;11.13;;;6.78;;
81154;SDS011;70631;50.436;7.826;2023-09-12T02:53:02;10.30;;;6.40;;
81154;SDS011;70631;50.436;7.826;2023-09-12T02:55:28;10.75;;;7.03;;
81154;SDS011;70631;50.436;7.826;2023-09-12T02:57:53;11.83;;;6.77;;
81154;SDS011;70631;50.436;7.826;2023-09-12T03:00:18;11.83;;;7.20;;
81154;SDS011;70631;50.436;7.826;2023-09-12T03:02:44;14.30;;;7.32;;
81154;SDS011;70631;50.436;7.826;2023-09-12T03:05:10;13.05;;;6.75;;
81154;SDS011;70631;50.436;7.826;2023-09-12T03:07:35;13.55;;;6.95;;
81154;SDS011;70631;50.436;7.826;2023-09-12T03:10:00;10.13;;;6.03;;
81154;SDS011;70631;50.436;7.826;2023-09-12T03:12:26;14.07;;;7.40;;
81154;SDS011;70631;50.436;7.826;2023-09-12T03:14:52;13.50;;;7.13;;
81154;SDS011;70631;50.436;7.826;2023-09-12T03:17:17;11.20;;;6.93;;
81154;SDS011;70631;50.436;7.826;2023-09-12T03:19:42;10.80;;;6.60;;
81154;SDS011;70631;50.436;7.826;2023-09-12T03:22:07;15.53;;;7.20;;
81154;SDS011;70631;50.436;7.826;2023-09-12T03:24:33;11.50;;;6.87;;
81154;SDS011;70631;50.436;7.826;2023-09-12T03:26:58;10.90;;;7.50;;
81154;SDS011;70631;50.436;7.826;2023-09-12T03:29:23;10.30;;;6.03;;
81154;SDS011;70631;50.436;7.826;2023-09-12T03:31:48;11.80;;;6.53;;
81154;SDS011;70631;50.436;7.826;2023-09-12T03:34:14;8.93;;;6.43;;
81154;SDS011;70631;50.436;7.826;2023-09-12T03:36:39;10.23;;;6.40;;
81154;SDS011;70631;50.436;7.826;2023-09-12T03:39:04;10.37;;;6.90;;
81154;SDS011;70631;50.436;7.826;2023-09-12T03:41:33;11.43;;;7.30;;
81154;SDS011;70631;50.436;7.826;2023-09-12T03:43:59;14.18;;;7.10;;
81154;SDS011;70631;50.436;7.826;2023-09-12T03:46:25;13.98;;;6.63;;
81154;SDS011;70631;50.436;7.826;2023-09-12T03:48:50;11.47;;;7.70;;
81154;SDS011;70631;50.436;7.826;2023-09-12T03:51:15;9.93;;;6.55;;
81154;SDS011;70631;50.436;7.826;2023-09-12T03:53:41;10.00;;;6.88;;
81154;SDS011;70631;50.436;7.826;2023-09-12T03:56:06;14.03;;;7.07;;
81154;SDS011;70631;50.436;7.826;2023-09-12T03:58:32;13.63;;;7.72;;
81154;SDS011;70631;50.436;7.826;2023-09-12T04:00:59;11.52;;;7.13;;
81154;SDS011;70631;50.436;7.826;2023-09-12T04:03:25;8.57;;;6.82;;
81154;SDS011;70631;50.436;7.826;2023-09-12T04:05:50;13.30;;;7.03;;
81154;SDS011;70631;50.436;7.826;2023-09-12T04:08:16;14.75;;;7.65;;
81154;SDS011;70631;50.436;7.826;2023-09-12T04:10:42;9.45;;;7.55;;
81154;SDS011;70631;50.436;7.826;2023-09-12T04:13:08;14.07;;;6.95;;
81154;SDS011;70631;50.436;7.826;2023-09-12T04:15:33;11.32;;;7.60;;
81154;SDS011;70631;50.436;7.826;2023-09-12T04:17:58;14.60;;;7.80;;
81154;SDS011;70631;50.436;7.826;2023-09-12T04:20:24;10.77;;;7.95;;
81154;SDS011;70631;50.436;7.826;2023-09-12T04:22:49;13.50;;;7.90;;
81154;SDS011;70631;50.436;7.826;2023-09-12T04:25:15;15.40;;;8.10;;
81154;SDS011;70631;50.436;7.826;2023-09-12T04:27:41;12.03;;;7.30;;
81154;SDS011;70631;50.436;7.826;2023-09-12T04:30:07;11.13;;;6.80;;
81154;SDS011;70631;50.436;7.826;2023-09-12T04:32:32;12.88;;;7.43;;
81154;SDS011;70631;50.436;7.826;2023-09-12T04:34:58;14.43;;;8.27;;
81154;SDS011;70631;50.436;7.826;2023-09-12T04:37:23;15.33;;;7.93;;
81154;SDS011;70631;50.436;7.826;2023-09-12T04:39:48;10.97;;;7.20;;
81154;SDS011;70631;50.436;7.826;2023-09-12T04:42:14;13.30;;;8.23;;
81154;SDS011;70631;50.436;7.826;2023-09-12T04:44:39;15.97;;;8.90;;
81154;SDS011;70631;50.436;7.826;2023-09-12T04:47:05;16.08;;;8.35;;
81154;SDS011;70631;50.436;7.826;2023-09-12T04:49:31;14.23;;;8.40;;
81154;SDS011;70631;50.436;7.826;2023-09-12T04:51:56;13.75;;;8.57;;
81154;SDS011;70631;50.436;7.826;2023-09-12T04:54:22;16.63;;;9.27;;
81154;SDS011;70631;50.436;7.826;2023-09-12T04:56:47;14.65;;;9.02;;
81154;SDS011;70631;50.436;7.826;2023-09-12T04:59:12;12.07;;;8.93;;
81154;SDS011;70631;50.436;7.826;2023-09-12T05:01:38;13.55;;;8.95;;
81154;SDS011;70631;50.436;7.826;2023-09-12T05:04:03;11.93;;;8.57;;
81154;SDS011;70631;50.436;7.826;2023-09-12T05:06:28;12.10;;;7.70;;
81154;SDS011;70631;50.436;7.826;2023-09-12T05:08:54;15.40;;;8.68;;
81154;SDS011;70631;50.436;7.826;2023-09-12T05:11:19;11.40;;;8.13;;
81154;SDS011;70631;50.436;7.826;2023-09-12T05:13:44;11.50;;;7.60;;
81154;SDS011;70631;50.436;7.826;2023-09-12T05:16:10;14.03;;;6.77;;
81154;SDS011;70631;50.436;7.826;2023-09-12T05:18:35;13.93;;;7.87;;
81154;SDS011;70631;50.436;7.826;2023-09-12T05:21:00;13.17;;;7.53;;
81154;SDS011;70631;50.436;7.826;2023-09-12T05:23:25;12.87;;;7.90;;
81154;SDS011;70631;50.436;7.826;2023-09-12T05:25:51;11.07;;;8.07;;
81154;SDS011;70631;50.436;7.826;2023-09-12T05:28:16;10.80;;;8.57;;
81154;SDS011;70631;50.436;7.826;2023-09-12T05:30:42;12.33;;;7.57;;
81154;SDS011;70631;50.436;7.826;2023-09-12T05:33:07;11.85;;;8.02;;
81154;SDS011;70631;50.436;7.826;2023-09-12T05:35:33;11.13;;;8.50;;
81154;SDS011;70631;50.436;7.826;2023-09-12T05:37:58;13.47;;;8.27;;
81154;SDS011;70631;50.436;7.826;2023-09-12T05:40:23;10.73;;;8.30;;
81154;SDS011;70631;50.436;7.826;2023-09-12T05:42:49;12.25;;;8.30;;
81154;SDS011;70631;50.436;7.826;2023-09-12T05:45:14;12.73;;;8.60;;
81154;SDS011;70631;50.436;7.826;2023-09-12T05:47:39;15.87;;;9.10;;
81154;SDS011;70631;50.436;7.826;2023-09-12T05:50:05;13.23;;;8.90;;
81154;SDS011;70631;50.436;7.826;2023-09-12T05:52:31;13.40;;;9.95;;
81154;SDS011;70631;50.436;7.826;2023-09-12T05:54:57;13.10;;;8.82;;
81154;SDS011;70631;50.436;7.826;2023-09-12T05:57:23;17.47;;;9.80;;
81154;SDS011;70631;50.436;7.826;2023-09-12T05:59:48;13.57;;;9.32;;
81154;SDS011;70631;50.436;7.826;2023-09-12T06:02:14;14.05;;;10.00;;
81154;SDS011;70631;50.436;7.826;2023-09-12T06:04:39;13.88;;;10.43;;
81154;SDS011;70631;50.436;7.826;2023-09-12T06:07:05;14.43;;;10.03;;
81154;SDS011;70631;50.436;7.826;2023-09-12T06:09:30;15.57;;;10.43;;
81154;SDS011;70631;50.436;7.826;2023-09-12T06:11:56;17.13;;;9.45;;
81154;SDS011;70631;50.436;7.826;2023-09-12T06:14:21;19.88;;;9.48;;
81154;SDS011;70631;50.436;7.826;2023-09-12T06:16:46;14.43;;;9.03;;
81154;SDS011;70631;50.436;7.826;2023-09-12T06:19:12;15.47;;;10.10;;
81154;SDS011;70631;50.436;7.826;2023-09-12T06:21:38;15.25;;;9.35;;
81154;SDS011;70631;50.436;7.826;2023-09-12T06:24:14;18.40;;;9.43;;
81154;SDS011;70631;50.436;7.826;2023-09-12T06:29:06;12.73;;;10.03;;
81154;SDS011;70631;50.436;7.826;2023-09-12T06:31:31;15.40;;;12.77;;
81154;SDS011;70631;50.436;7.826;2023-09-12T06:33:57;17.00;;;11.73;;
81154;SDS011;70631;50.436;7.826;2023-09-12T06:36:25;15.55;;;12.23;;
81154;SDS011;70631;50.436;7.826;2023-09-12T06:38:52;14.63;;;12.10;;
81154;SDS011;70631;50.436;7.826;2023-09-12T06:41:20;14.07;;;11.25;;
81154;SDS011;70631;50.436;7.826;2023-09-12T06:43:45;20.15;;;12.90;;
81154;SDS011;70631;50.436;7.826;2023-09-12T06:46:11;22.08;;;10.75;;
81154;SDS011;70631;50.436;7.826;2023-09-12T06:48:36;18.60;;;10.27;;
81154;SDS011;70631;50.436;7.826;2023-09-12T06:51:04;17.57;;;11.23;;
81154;SDS011;70631;50.436;7.826;2023-09-12T06:53:30;16.35;;;11.23;;
81154;SDS011;70631;50.436;7.826;2023-09-12T06:55:55;18.80;;;11.57;;
81154;SDS011;70631;50.436;7.826;2023-09-12T06:58:22;20.35;;;10.75;;
81154;SDS011;70631;50.436;7.826;2023-09-12T07:00:47;17.23;;;11.77;;
81154;SDS011;70631;50.436;7.826;2023-09-12T07:03:13;19.83;;;12.50;;
81154;SDS011;70631;50.436;7.826;2023-09-12T07:05:38;18.43;;;12.40;;
81154;SDS011;70631;50.436;7.826;2023-09-12T07:08:05;20.98;;;13.15;;
81154;SDS011;70631;50.436;7.826;2023-09-12T07:10:30;19.95;;;13.30;;
81154;SDS011;70631;50.436;7.826;2023-09-12T07:12:55;64.43;;;16.27;;
81154;SDS011;70631;50.436;7.826;2023-09-12T07:15:20;24.43;;;12.93;;
81154;SDS011;70631;50.436;7.826;2023-09-12T07:17:46;18.13;;;12.40;;
81154;SDS011;70631;50.436;7.826;2023-09-12T07:20:11;13.15;;;11.40;;
81154;SDS011;70631;50.436;7.826;2023-09-12T07:22:38;16.58;;;12.02;;
81154;SDS011;70631;50.436;7.826;2023-09-12T07:25:05;30.27;;;11.68;;
81154;SDS011;70631;50.436;7.826;2023-09-12T07:27:31;15.10;;;9.48;;
81154;SDS011;70631;50.436;7.826;2023-09-12T07:29:56;14.60;;;9.87;;
81154;SDS011;70631;50.436;7.826;2023-09-12T07:32:21;14.67;;;10.97;;
81154;SDS011;70631;50.436;7.826;2023-09-12T07:34:46;15.85;;;10.02;;
81154;SDS011;70631;50.436;7.826;2023-09-12T07:37:13;18.33;;;10.10;;
81154;SDS011;70631;50.436;7.826;2023-09-12T07:39:39;19.38;;;10.95;;
81154;SDS011;70631;50.436;7.826;2023-09-12T07:42:04;19.47;;;10.03;;
81154;SDS011;70631;50.436;7.826;2023-09-12T07:44:30;16.50;;;9.40;;
81154;SDS011;70631;50.436;7.826;2023-09-12T07:46:55;15.33;;;9.67;;
81154;SDS011;70631;50.436;7.826;2023-09-12T07:49:20;18.70;;;9.03;;
81154;SDS011;70631;50.436;7.826;2023-09-12T07:51:45;19.93;;;10.07;;
81154;SDS011;70631;50.436;7.826;2023-09-12T07:54:11;18.07;;;9.07;;
81154;SDS011;70631;50.436;7.826;2023-09-12T07:56:36;15.95;;;9.32;;
81154;SDS011;70631;50.436;7.826;2023-09-12T07:59:01;15.17;;;9.47;;
81154;SDS011;70631;50.436;7.826;2023-09-12T08:01:27;11.13;;;7.85;;
81154;SDS011;70631;50.436;7.826;2023-09-12T08:03:52;15.43;;;8.38;;
81154;SDS011;70631;50.436;7.826;2023-09-12T08:06:17;15.88;;;8.65;;
81154;SDS011;70631;50.436;7.826;2023-09-12T08:08:43;18.83;;;9.23;;
81154;SDS011;70631;50.436;7.826;2023-09-12T08:11:08;14.23;;;7.80;;
81154;SDS011;70631;50.436;7.826;2023-09-12T08:13:33;18.27;;;8.57;;
81154;SDS011;70631;50.436;7.826;2023-09-12T08:15:59;12.33;;;7.47;;
81154;SDS011;70631;50.436;7.826;2023-09-12T08:18:28;16.10;;;8.50;;
81154;SDS011;70631;50.436;7.826;2023-09-12T08:20:55;21.10;;;8.60;;
81154;SDS011;70631;50.436;7.826;2023-09-12T08:23:21;16.20;;;8.70;;
81154;SDS011;70631;50.436;7.826;2023-09-12T08:25:46;19.83;;;9.47;;
81154;SDS011;70631;50.436;7.826;2023-09-12T08:28:11;14.73;;;8.23;;
81154;SDS011;70631;50.436;7.826;2023-09-12T08:30:36;15.40;;;8.23;;
81154;SDS011;70631;50.436;7.826;2023-09-12T08:33:02;14.47;;;8.37;;
81154;SDS011;70631;50.436;7.826;2023-09-12T08:35:28;23.50;;;9.85;;
81154;SDS011;70631;50.436;7.826;2023-09-12T08:37:54;11.80;;;7.47;;
81154;SDS011;70631;50.436;7.826;2023-09-12T08:40:19;17.33;;;9.27;;
81154;SDS011;70631;50.436;7.826;2023-09-12T08:42:45;19.55;;;8.50;;
81154;SDS011;70631;50.436;7.826;2023-09-12T08:45:15;31.38;;;9.63;;
81154;SDS011;70631;50.436;7.826;2023-09-12T08:47:43;16.52;;;8.50;;
81154;SDS011;70631;50.436;7.826;2023-09-12T08:50:13;22.92;;;9.40;;
81154;SDS011;70631;50.436;7.826;2023-09-12T08:52:40;15.45;;;8.40;;
81154;SDS011;70631;50.436;7.826;2023-09-12T08:55:07;17.17;;;9.02;;
81154;SDS011;70631;50.436;7.826;2023-09-12T08:57:33;14.38;;;8.15;;
81154;SDS011;70631;50.436;7.826;2023-09-12T09:00:00;12.38;;;7.40;;
81154;SDS011;70631;50.436;7.826;2023-09-12T09:04:56;11.43;;;7.13;;
81154;SDS011;70631;50.436;7.826;2023-09-12T09:07:23;18.27;;;7.88;;
81154;SDS011;70631;50.436;7.826;2023-09-12T09:09:49;17.85;;;7.90;;
81154;SDS011;70631;50.436;7.826;2023-09-12T09:12:16;10.70;;;6.88;;
81154;SDS011;70631;50.436;7.826;2023-09-12T09:14:41;19.23;;;7.70;;
81154;SDS011;70631;50.436;7.826;2023-09-12T09:17:07;22.07;;;8.27;;
81154;SDS011;70631;50.436;7.826;2023-09-12T09:19:42;19.58;;;7.97;;
81154;SDS011;70631;50.436;7.826;2023-09-12T09:22:10;12.90;;;8.02;;
81154;SDS011;70631;50.436;7.826;2023-09-12T09:24:36;9.13;;;7.13;;
81154;SDS011;70631;50.436;7.826;2023-09-12T09:27:01;12.50;;;7.60;;
81154;SDS011;70631;50.436;7.826;2023-09-12T09:29:27;11.45;;;7.30;;
81154;SDS011;70631;50.436;7.826;2023-09-12T09:31:59;13.52;;;7.43;;
81154;SDS011;70631;50.436;7.826;2023-09-12T09:34:26;15.82;;;6.65;;
81154;SDS011;70631;50.436;7.826;2023-09-12T09:36:54;12.75;;;8.07;;
81154;SDS011;70631;50.436;7.826;2023-09-12T09:39:25;12.25;;;7.88;;
81154;SDS011;70631;50.436;7.826;2023-09-12T09:41:52;12.35;;;8.25;;
81154;SDS011;70631;50.436;7.826;2023-09-12T09:44:20;11.98;;;7.65;;
81154;SDS011;70631;50.436;7.826;2023-09-12T09:46:47;19.23;;;7.90;;
81154;SDS011;70631;50.436;7.826;2023-09-12T09:49:18;18.50;;;8.25;;
81154;SDS011;70631;50.436;7.826;2023-09-12T09:51:44;15.60;;;8.25;;
81154;SDS011;70631;50.436;7.826;2023-09-12T09:54:11;14.82;;;7.95;;
81154;SDS011;70631;50.436;7.826;2023-09-12T09:56:49;15.80;;;8.45;;
81154;SDS011;70631;50.436;7.826;2023-09-12T09:59:16;11.55;;;7.60;;
81154;SDS011;70631;50.436;7.826;2023-09-12T10:01:43;14.77;;;7.78;;
81154;SDS011;70631;50.436;7.826;2023-09-12T10:04:09;9.88;;;7.32;;
81154;SDS011;70631;50.436;7.826;2023-09-12T10:06:35;15.20;;;8.13;;
81154;SDS011;70631;50.436;7.826;2023-09-12T10:09:03;15.27;;;8.20;;
81154;SDS011;70631;50.436;7.826;2023-09-12T10:11:35;16.67;;;8.13;;
81154;SDS011;70631;50.436;7.826;2023-09-12T10:14:03;15.77;;;8.00;;
81154;SDS011;70631;50.436;7.826;2023-09-12T10:16:30;11.63;;;7.80;;
81154;SDS011;70631;50.436;7.826;2023-09-12T10:24:29;16.83;;;9.77;;
81154;SDS011;70631;50.436;7.826;2023-09-12T10:26:55;13.90;;;8.45;;
81154;SDS011;70631;50.436;7.826;2023-09-12T10:29:22;11.85;;;8.32;;
81154;SDS011;70631;50.436;7.826;2023-09-12T10:31:48;15.90;;;8.45;;
81154;SDS011;70631;50.436;7.826;2023-09-12T10:34:14;11.57;;;7.75;;
81154;SDS011;70631;50.436;7.826;2023-09-12T10:36:40;21.73;;;9.23;;
81154;SDS011;70631;50.436;7.826;2023-09-12T10:39:06;15.70;;;8.68;;
81154;SDS011;70631;50.436;7.826;2023-09-12T10:41:35;15.45;;;8.00;;
81154;SDS011;70631;50.436;7.826;2023-09-12T10:44:02;11.70;;;9.23;;
81154;SDS011;70631;50.436;7.826;2023-09-12T10:46:34;14.07;;;8.77;;
81154;SDS011;70631;50.436;7.826;2023-09-12T10:49:02;14.20;;;9.10;;
81154;SDS011;70631;50.436;7.826;2023-09-12T10:51:31;11.90;;;8.93;;
81154;SDS011;70631;50.436;7.826;2023-09-12T10:53:56;15.25;;;9.52;;
81154;SDS011;70631;50.436;7.826;2023-09-12T10:56:21;19.83;;;10.17;;
81154;SDS011;70631;50.436;7.826;2023-09-12T10:59:30;12.18;;;9.27;;
81154;SDS011;70631;50.436;7.826;2023-09-12T11:01:41;17.67;;;9.82;;
81154;SDS011;70631;50.436;7.826;2023-09-12T11:06:45;11.07;;;9.25;;
81154;SDS011;70631;50.436;7.826;2023-09-12T11:11:42;14.30;;;9.60;;
81154;SDS011;70631;50.436;7.826;2023-09-12T11:14:09;12.55;;;9.07;;
81154;SDS011;70631;50.436;7.826;2023-09-12T11:16:34;13.15;;;9.40;;
81154;SDS011;70631;50.436;7.826;2023-09-12T11:21:45;13.10;;;10.50;;
81154;SDS011;70631;50.436;7.826;2023-09-12T11:24:12;13.55;;;10.07;;
81154;SDS011;70631;50.436;7.826;2023-09-12T11:26:54;13.05;;;10.68;;
81154;SDS011;70631;50.436;7.826;2023-09-12T11:29:30;15.13;;;8.57;;
81154;SDS011;70631;50.436;7.826;2023-09-12T11:32:02;12.45;;;8.85;;
81154;SDS011;70631;50.436;7.826;2023-09-12T11:34:35;15.80;;;8.88;;
81154;SDS011;70631;50.436;7.826;2023-09-12T11:37:06;12.07;;;9.35;;
81154;SDS011;70631;50.436;7.826;2023-09-12T11:39:32;10.07;;;9.07;;
81154;SDS011;70631;50.436;7.826;2023-09-12T11:42:00;23.33;;;9.38;;
81154;SDS011;70631;50.436;7.826;2023-09-12T11:44:27;11.75;;;9.55;;
81154;SDS011;70631;50.436;7.826;2023-09-12T11:46:53;11.70;;;10.05;;
81154;SDS011;70631;50.436;7.826;2023-09-12T11:49:19;14.05;;;10.00;;
81154;SDS011;70631;50.436;7.826;2023-09-12T11:51:49;17.02;;;10.40;;
81154;SDS011;70631;50.436;7.826;2023-09-12T11:54:19;11.38;;;9.07;;
81154;SDS011;70631;50.436;7.826;2023-09-12T11:56:49;18.13;;;10.05;;
81154;SDS011;70631;50.436;7.826;2023-09-12T11:59:22;15.93;;;9.93;;
81154;SDS011;70631;50.436;7.826;2023-09-12T12:01:48;14.25;;;9.35;;
81154;SDS011;70631;50.436;7.826;2023-09-12T12:04:14;13.85;;;8.63;;
81154;SDS011;70631;50.436;7.826;2023-09-12T12:06:40;14.05;;;9.75;;
81154;SDS011;70631;50.436;7.826;2023-09-12T12:09:06;13.38;;;10.38;;
81154;SDS011;70631;50.436;7.826;2023-09-12T12:11:31;16.30;;;10.37;;
81154;SDS011;70631;50.436;7.826;2023-09-12T12:13:57;14.18;;;9.55;;
81154;SDS011;70631;50.436;7.826;2023-09-12T12:16:24;19.97;;;10.23;;
81154;SDS011;70631;50.436;7.826;2023-09-12T12:18:50;12.75;;;9.50;;
81154;SDS011;70631;50.436;7.826;2023-09-12T12:21:19;16.52;;;10.15;;
81154;SDS011;70631;50.436;7.826;2023-09-12T12:23:45;12.88;;;10.23;;
81154;SDS011;70631;50.436;7.826;2023-09-12T12:26:10;12.93;;;10.50;;
81154;SDS011;70631;50.436;7.826;2023-09-12T12:28:35;19.20;;;13.00;;
81154;SDS011;70631;50.436;7.826;2023-09-12T12:31:01;16.93;;;13.20;;
81154;SDS011;70631;50.436;7.826;2023-09-12T12:33:26;16.10;;;12.60;;
81154;SDS011;70631;50.436;7.826;2023-09-12T12:35:59;16.83;;;11.82;;
81154;SDS011;70631;50.436;7.826;2023-09-12T12:38:25;18.25;;;13.18;;
81154;SDS011;70631;50.436;7.826;2023-09-12T12:40:50;22.85;;;13.95;;
81154;SDS011;70631;50.436;7.826;2023-09-12T12:43:16;20.03;;;12.87;;
81154;SDS011;70631;50.436;7.826;2023-09-12T12:45:51;23.77;;;13.35;;
81154;SDS011;70631;50.436;7.826;2023-09-12T12:48:28;20.92;;;13.45;;
81154;SDS011;70631;50.436;7.826;2023-09-12T12:50:55;21.77;;;12.35;;
81154;SDS011;70631;50.436;7.826;2023-09-12T12:53:36;19.70;;;13.70;;
81154;SDS011;70631;50.436;7.826;2023-09-12T12:56:04;20.58;;;13.73;;
81154;SDS011;70631;50.436;7.826;2023-09-12T12:58:30;21.70;;;14.02;;
81154;SDS011;70631;50.436;7.826;2023-09-12T13:00:55;20.60;;;13.45;;
81154;SDS011;70631;50.436;7.826;2023-09-12T13:03:20;53.00;;;15.97;;
81154;SDS011;70631;50.436;7.826;2023-09-12T13:05:46;22.13;;;13.93;;
81154;SDS011;70631;50.436;7.826;2023-09-12T13:08:11;20.63;;;14.13;;
81154;SDS011;70631;50.436;7.826;2023-09-12T13:10:36;20.07;;;14.77;;
81154;SDS011;70631;50.436;7.826;2023-09-12T13:13:02;23.02;;;15.20;;
81154;SDS011;70631;50.436;7.826;2023-09-12T13:15:29;22.20;;;16.00;;
81154;SDS011;70631;50.436;7.826;2023-09-12T13:17:54;16.45;;;14.73;;
81154;SDS011;70631;50.436;7.826;2023-09-12T13:20:19;21.43;;;15.10;;
81154;SDS011;70631;50.436;7.826;2023-09-12T13:22:45;21.70;;;14.10;;
81154;SDS011;70631;50.436;7.826;2023-09-12T13:25:10;23.50;;;16.30;;
81154;SDS011;70631;50.436;7.826;2023-09-12T13:27:36;18.52;;;14.35;;
81154;SDS011;70631;50.436;7.826;2023-09-12T13:30:01;36.00;;;22.10;;
81154;SDS011;70631;50.436;7.826;2023-09-12T13:32:28;25.40;;;17.63;;
81154;SDS011;70631;50.436;7.826;2023-09-12T13:34:53;23.07;;;18.33;;
81154;SDS011;70631;50.436;7.826;2023-09-12T13:37:19;21.57;;;16.10;;
81154;SDS011;70631;50.436;7.826;2023-09-12T13:39:44;20.57;;;16.03;;
81154;SDS011;70631;50.436;7.826;2023-09-12T13:42:14;20.98;;;16.45;;
81154;SDS011;70631;50.436;7.826;2023-09-12T13:44:43;24.23;;;16.23;;
81154;SDS011;70631;50.436;7.826;2023-09-12T13:47:09;20.30;;;15.60;;
81154;SDS011;70631;50.436;7.826;2023-09-12T13:49:35;24.47;;;16.60;;
81154;SDS011;70631;50.436;7.826;2023-09-12T13:52:00;17.60;;;14.70;;
81154;SDS011;70631;50.436;7.826;2023-09-12T13:54:25;19.50;;;14.93;;
81154;SDS011;70631;50.436;7.826;2023-09-12T13:56:50;18.47;;;14.40;;
81154;SDS011;70631;50.436;7.826;2023-09-12T13:59:16;22.30;;;13.77;;
81154;SDS011;70631;50.436;7.826;2023-09-12T14:01:42;17.00;;;13.60;;
81154;SDS011;70631;50.436;7.826;2023-09-12T14:04:07;20.33;;;14.80;;
81154;SDS011;70631;50.436;7.826;2023-09-12T14:06:33;18.93;;;15.07;;
81154;SDS011;70631;50.436;7.826;2023-09-12T14:09:00;16.90;;;13.48;;
81154;SDS011;70631;50.436;7.826;2023-09-12T14:11:25;17.27;;;11.90;;
81154;SDS011;70631;50.436;7.826;2023-09-12T14:13:50;15.23;;;11.40;;
81154;SDS011;70631;50.436;7.826;2023-09-12T14:16:16;24.33;;;13.47;;
81154;SDS011;70631;50.436;7.826;2023-09-12T14:18:41;17.07;;;12.50;;
81154;SDS011;70631;50.436;7.826;2023-09-12T14:21:06;19.03;;;14.80;;
81154;SDS011;70631;50.436;7.826;2023-09-12T14:23:31;15.20;;;11.83;;
81154;SDS011;70631;50.436;7.826;2023-09-12T14:25:57;18.97;;;12.93;;
81154;SDS011;70631;50.436;7.826;2023-09-12T14:28:22;20.87;;;13.57;;
81154;SDS011;70631;50.436;7.826;2023-09-12T14:30:47;26.80;;;13.48;;
81154;SDS011;70631;50.436;7.826;2023-09-12T14:33:14;17.73;;;12.90;;
81154;SDS011;70631;50.436;7.826;2023-09-12T14:35:40;19.90;;;13.55;;
81154;SDS011;70631;50.436;7.826;2023-09-12T14:38:08;16.13;;;12.48;;
81154;SDS011;70631;50.436;7.826;2023-09-12T14:40:33;18.30;;;13.63;;
81154;SDS011;70631;50.436;7.826;2023-09-12T14:42:59;15.65;;;13.07;;
81154;SDS011;70631;50.436;7.826;2023-09-12T14:45:25;19.55;;;13.45;;
81154;SDS011;70631;50.436;7.826;2023-09-12T14:47:50;17.02;;;12.10;;
81154;SDS011;70631;50.436;7.826;2023-09-12T14:50:16;16.23;;;12.65;;